Time;durP1;ratioP1;P1;durP2;ratioP2;P2;SDS_P1;SDS_P2;PMS_P1;PMS_P2;Temp;Humidity;BMP_temperature;BMP_pressure;BME280_temperature;BME280_humidity;BME280_pressure;Samples;Min_cycle;Max_cycle;Signal;HPM_P1;HPM_P2
2022/09/12 00:01:09;;;;;;;16.50;5.77;;;14.20;96.50;;;;;;5046748;28;20504;-63
2022/09/12 00:03:37;;;;;;;21.10;7.73;;;;;;;;;;5034146;28;20504;-64
2022/09/12 00:06:10;;;;;;;11.37;4.97;;;14.10;96.80;;;;;;5034683;28;20667;-61
2022/09/12 00:08:38;;;;;;;12.43;5.63;;;14.10;96.80;;;;;;5030178;28;20837;-65
2022/09/12 00:11:07;;;;;;;10.67;4.87;;;14.10;97.10;;;;;;5036631;28;20464;-69
2022/09/12 00:13:34;;;;;;;19.40;5.07;;;;;;;;;;5025745;28;20492;-70
2022/09/12 00:16:01;;;;;;;14.10;3.60;;;;;;;;;;5025665;28;20490;-70
2022/09/12 00:18:28;;;;;;;15.77;5.83;;;14.10;97.30;;;;;;5047897;28;20476;-67
2022/09/12 00:20:54;;;;;;;10.60;4.53;;;14.10;97.20;;;;;;5051079;28;20847;-63
2022/09/12 00:23:22;;;;;;;10.80;5.87;;;14.10;97.10;;;;;;5047011;28;20576;-70
2022/09/12 00:25:49;;;;;;;14.63;4.77;;;;;;;;;;5040028;28;20476;-68
2022/09/12 00:28:18;;;;;;;18.03;4.97;;;14.10;96.80;;;;;;5041850;28;20498;-66
2022/09/12 00:30:46;;;;;;;36.63;5.70;;;14.10;96.90;;;;;;5041954;28;20487;-67
2022/09/12 00:33:14;;;;;;;22.57;5.63;;;;;;;;;;5052298;28;20478;-68
2022/09/12 00:35:45;;;;;;;18.20;5.37;;;14.00;97.30;;;;;;5032661;28;20479;-67
2022/09/12 00:38:12;;;;;;;13.93;4.63;;;14.00;97.10;;;;;;5040786;28;20483;-64
2022/09/12 00:40:41;;;;;;;15.13;7.60;;;;;;;;;;5041614;28;20490;-65
2022/09/12 00:43:14;;;;;;;11.13;5.00;;;14.00;97.10;;;;;;5049693;28;20479;-65
2022/09/12 00:45:41;;;;;;;17.77;5.60;;;;;;;;;;5042499;28;20877;-62
2022/09/12 00:48:22;;;;;;;11.30;4.63;;;14.00;97.10;;;;;;5047034;28;20767;-66
2022/09/12 00:50:50;;;;;;;21.70;4.50;;;;;;;;;;5034412;28;20492;-66
2022/09/12 00:53:17;;;;;;;11.60;4.37;;;;;;;;;;5033613;28;20483;-62
2022/09/12 00:55:47;;;;;;;5.90;3.13;;;;;;;;;;5032728;28;20619;-61
2022/09/12 00:58:17;;;;;;;9.93;3.93;;;;;;;;;;5039018;28;20562;-67
2022/09/12 01:00:44;;;;;;;14.43;4.40;;;;;;;;;;5050132;28;20917;-66
2022/09/12 01:03:14;;;;;;;18.17;4.70;;;13.60;97.30;;;;;;5035219;28;20493;-66
2022/09/12 01:05:49;;;;;;;20.17;5.47;;;13.60;97.40;;;;;;5031457;28;20742;-64
2022/09/12 01:08:17;;;;;;;17.43;4.70;;;13.60;97.40;;;;;;5045805;28;20470;-61
2022/09/12 01:10:46;;;;;;;19.03;4.97;;;13.60;97.40;;;;;;5037637;28;20503;-70
2022/09/12 01:13:13;;;;;;;29.97;5.37;;;13.60;97.40;;;;;;5039531;28;20572;-63
2022/09/12 01:15:40;;;;;;;21.60;5.20;;;13.60;97.50;;;;;;5043512;28;20496;-65
2022/09/12 01:18:16;;;;;;;26.67;4.87;;;13.60;97.50;;;;;;5039799;28;20481;-62
2022/09/12 01:20:54;;;;;;;21.07;5.20;;;13.60;97.40;;;;;;5058701;28;20578;-62
2022/09/12 01:24:02;;;;;;;18.97;5.73;;;13.60;97.40;;;;;;5070330;28;20494;-70
2022/09/12 01:26:58;;;;;;;16.80;3.93;;;13.60;97.50;;;;;;5063576;28;20478;-73
2022/09/12 01:30:03;;;;;;;14.07;4.33;;;13.50;97.60;;;;;;5032009;28;20546;-67
2022/09/12 01:32:43;;;;;;;12.50;4.77;;;13.30;98.00;;;;;;4954720;28;20479;-65
2022/09/12 01:35:21;;;;;;;15.93;4.50;;;13.30;98.40;;;;;;5035299;28;20622;-69
2022/09/12 01:37:58;;;;;;;9.10;4.60;;;13.20;98.70;;;;;;5020829;28;20537;-63
2022/09/12 01:40:32;;;;;;;10.83;3.87;;;13.10;98.90;;;;;;5030820;28;20488;-62
2022/09/12 01:43:04;;;;;;;14.63;5.17;;;;;;;;;;5028495;28;20479;-68
2022/09/12 01:45:37;;;;;;;17.50;4.57;;;13.20;98.80;;;;;;5039381;28;20494;-70
2022/09/12 01:48:11;;;;;;;19.17;4.80;;;13.30;98.80;;;;;;5045052;28;20553;-65
2022/09/12 01:50:46;;;;;;;20.57;4.63;;;13.30;98.60;;;;;;5031326;28;20594;-64
2022/09/12 01:53:16;;;;;;;13.57;4.70;;;13.30;98.50;;;;;;5025864;28;20481;-68
2022/09/12 01:55:48;;;;;;;19.93;5.80;;;13.30;98.50;;;;;;5024631;28;20467;-63
2022/09/12 01:58:21;;;;;;;10.30;4.00;;;13.20;98.50;;;;;;5050153;28;20960;-63
2022/09/12 02:00:51;;;;;;;20.87;6.20;;;;;;;;;;5050152;28;20987;-65
2022/09/12 02:03:24;;;;;;;20.30;5.53;;;13.30;98.40;;;;;;5045531;28;20475;-68
2022/09/12 02:05:54;;;;;;;17.90;4.80;;;13.30;98.30;;;;;;5045567;28;20486;-64
2022/09/12 02:08:25;;;;;;;32.30;5.43;;;13.30;98.30;;;;;;5045628;28;20501;-62
2022/09/12 02:10:56;;;;;;;12.27;5.63;;;13.30;98.20;;;;;;5062149;28;20498;-65
2022/09/12 02:13:29;;;;;;;20.97;4.27;;;13.30;98.40;;;;;;5059119;28;21131;-67
2022/09/12 02:16:03;;;;;;;17.20;4.97;;;13.30;98.20;;;;;;5048541;28;20948;-65
2022/09/12 02:18:33;;;;;;;15.17;4.93;;;13.30;98.20;;;;;;5045772;28;20485;-64
2022/09/12 02:21:04;;;;;;;28.17;5.80;;;13.30;98.30;;;;;;5045006;28;20474;-64
2022/09/12 02:23:32;;;;;;;21.10;6.00;;;13.30;98.20;;;;;;5049268;28;20736;-67
2022/09/12 02:26:05;;;;;;;15.53;5.67;;;13.10;98.10;;;;;;5048836;28;20490;-63
2022/09/12 02:28:38;;;;;;;13.93;5.40;;;13.10;98.30;;;;;;5046307;28;20527;-64
2022/09/12 02:31:11;;;;;;;18.53;4.87;;;;;;;;;;5049054;28;20479;-61
2022/09/12 02:33:48;;;;;;;17.93;5.13;;;12.70;98.70;;;;;;5053498;28;20486;-62
2022/09/12 02:36:26;;;;;;;11.77;4.80;;;12.50;99.40;;;;;;5053688;28;20478;-66
2022/09/12 02:38:55;;;;;;;20.07;5.00;;;12.40;99.60;;;;;;5057167;28;20502;-66
2022/09/12 02:41:22;;;;;;;13.53;5.70;;;12.50;99.80;;;;;;5046640;28;20483;-65
2022/09/12 02:43:51;;;;;;;16.97;6.53;;;12.50;99.60;;;;;;5053884;28;20490;-66
2022/09/12 02:46:22;;;;;;;22.47;5.00;;;12.60;99.60;;;;;;5040853;28;20479;-67
2022/09/12 02:48:50;;;;;;;11.23;5.37;;;12.70;99.40;;;;;;5061417;28;20483;-66
2022/09/12 02:51:18;;;;;;;20.17;5.20;;;;;;;;;;5055911;28;20475;-66
2022/09/12 02:53:44;;;;;;;10.77;4.80;;;12.80;99.40;;;;;;5053928;28;20488;-66
2022/09/12 02:56:14;;;;;;;8.17;4.40;;;;;;;;;;5075323;28;20497;-69
2022/09/12 02:58:41;;;;;;;16.47;5.10;;;;;;;;;;5073402;28;20536;-66
2022/09/12 03:01:14;;;;;;;11.60;4.07;;;12.90;98.90;;;;;;5070699;28;20483;-66
2022/09/12 03:04:19;;;;;;;11.10;4.23;;;12.90;98.70;;;;;;5046216;28;20459;-64
2022/09/12 03:06:51;;;;;;;21.43;5.70;;;;;;;;;;4993030;28;20467;-67
2022/09/12 03:09:26;;;;;;;17.60;5.60;;;12.90;98.80;;;;;;5060483;28;20887;-63
2022/09/12 03:12:08;;;;;;;9.90;4.37;;;12.90;98.80;;;;;;5055274;28;20455;-64
2022/09/12 03:15:00;;;;;;;19.37;6.47;;;12.90;98.80;;;;;;5042147;28;20487;-64
2022/09/12 03:17:40;;;;;;;11.43;5.30;;;12.90;98.50;;;;;;5069786;28;20498;-61
2022/09/12 03:20:12;;;;;;;14.13;5.30;;;12.90;98.40;;;;;;5061912;28;20835;-61
2022/09/12 03:22:44;;;;;;;15.03;5.53;;;;;;;;;;5061960;28;21046;-66
2022/09/12 03:25:17;;;;;;;20.60;4.47;;;12.70;98.70;;;;;;5062928;28;20448;-66
2022/09/12 03:27:49;;;;;;;9.87;5.10;;;12.60;98.80;;;;;;5061556;28;20960;-67
2022/09/12 03:30:16;;;;;;;9.20;4.30;;;12.50;99.20;;;;;;5079197;28;20675;-62
2022/09/12 03:32:44;;;;;;;12.43;5.67;;;;;;;;;;5078131;28;20486;-65
2022/09/12 03:35:14;;;;;;;18.97;5.30;;;12.50;99.00;;;;;;5062436;28;20463;-66
2022/09/12 03:37:41;;;;;;;15.27;4.70;;;;;;;;;;5061457;28;20475;-66
2022/09/12 03:40:10;;;;;;;13.50;5.43;;;;;;;;;;5062087;28;20471;-66
2022/09/12 03:42:37;;;;;;;13.43;5.50;;;;;;;;;;5060515;28;20452;-66
2022/09/12 03:45:05;;;;;;;16.93;5.33;;;12.40;98.80;;;;;;5061797;28;20523;-68
2022/09/12 03:47:32;;;;;;;11.60;5.20;;;12.40;98.80;;;;;;5067295;28;20513;-65
2022/09/12 03:49:58;;;;;;;7.90;4.07;;;12.40;98.80;;;;;;5040631;28;20460;-65
2022/09/12 03:52:27;;;;;;;19.60;5.90;;;;;;;;;;5040114;28;21118;-65
2022/09/12 03:54:53;;;;;;;17.50;5.27;;;12.50;99.10;;;;;;5041840;28;20555;-67
2022/09/12 03:57:20;;;;;;;19.13;4.87;;;12.60;98.80;;;;;;5042101;28;20454;-66
2022/09/12 03:59:49;;;;;;;21.97;5.30;;;12.60;98.60;;;;;;5061413;28;20475;-65
2022/09/12 04:02:15;;;;;;;10.13;3.67;;;12.60;98.40;;;;;;5039907;28;20849;-67
2022/09/12 04:04:43;;;;;;;14.20;4.60;;;12.60;98.30;;;;;;5037562;28;20459;-66
2022/09/12 04:07:10;;;;;;;21.20;5.03;;;;;;;;;;5038735;28;20796;-67
2022/09/12 04:09:39;;;;;;;11.70;4.20;;;12.40;98.30;;;;;;5037612;28;20525;-68
2022/09/12 04:12:07;;;;;;;20.40;5.00;;;;;;;;;;5038911;28;20514;-71
2022/09/12 04:14:34;;;;;;;21.50;5.67;;;;;;;;;;5049683;28;20493;-64
2022/09/12 04:17:01;;;;;;;22.17;5.40;;;;;;;;;;5062212;28;20471;-67
2022/09/12 04:19:28;;;;;;;14.47;5.30;;;12.60;98.20;;;;;;5060173;28;20459;-64
2022/09/12 04:21:55;;;;;;;17.87;5.37;;;12.50;98.10;;;;;;5061008;28;20478;-67
2022/09/12 04:24:21;;;;;;;12.00;4.80;;;12.50;98.20;;;;;;5061051;28;20459;-67
2022/09/12 04:26:50;;;;;;;17.30;5.13;;;;;;;;;;5061297;28;20459;-67
2022/09/12 04:29:17;;;;;;;24.67;5.97;;;;;;;;;;5075473;28;20469;-66
2022/09/12 04:31:44;;;;;;;7.87;4.20;;;;;;;;;;5081049;28;20555;-63
2022/09/12 04:34:11;;;;;;;12.47;4.47;;;;;;;;;;5082141;28;20478;-69
2022/09/12 04:36:38;;;;;;;20.37;5.90;;;12.50;98.00;;;;;;5077528;28;20923;-68
2022/09/12 04:39:06;;;;;;;8.97;4.33;;;12.40;98.00;;;;;;5060057;28;20818;-69
2022/09/12 04:41:34;;;;;;;13.77;4.87;;;;;;;;;;5060143;28;20499;-63
2022/09/12 04:44:04;;;;;;;11.03;4.63;;;12.30;98.00;;;;;;5060531;28;20471;-67
2022/09/12 04:46:33;;;;;;;10.60;4.87;;;12.30;98.00;;;;;;5058186;28;20478;-65
2022/09/12 04:49:00;;;;;;;17.67;4.53;;;12.20;98.10;;;;;;5060543;28;20850;-69
2022/09/12 04:51:29;;;;;;;11.60;4.50;;;12.20;98.20;;;;;;5060136;28;20882;-65
2022/09/12 04:53:57;;;;;;;13.23;4.20;;;;;;;;;;5060299;28;20488;-70
2022/09/12 04:56:25;;;;;;;21.50;5.20;;;12.10;98.10;;;;;;5059905;28;20502;-65
2022/09/12 04:58:52;;;;;;;15.60;4.40;;;12.00;98.30;;;;;;5059694;28;20476;-67
2022/09/12 05:01:21;;;;;;;10.20;4.47;;;12.00;98.40;;;;;;5060264;28;20488;-68
2022/09/12 05:03:49;;;;;;;15.93;4.63;;;12.00;98.40;;;;;;5059999;28;20471;-66
2022/09/12 05:06:19;;;;;;;20.70;5.30;;;12.10;98.60;;;;;;5060272;28;20468;-70
2022/09/12 05:08:46;;;;;;;9.90;4.43;;;12.10;98.50;;;;;;5052736;28;20521;-68
2022/09/12 05:11:15;;;;;;;25.63;5.37;;;12.10;98.50;;;;;;5047775;28;20478;-69
2022/09/12 05:13:42;;;;;;;11.50;5.17;;;12.20;98.60;;;;;;5059389;28;20502;-67
2022/09/12 05:16:11;;;;;;;9.90;5.17;;;;;;;;;;5058461;28;20525;-67
2022/09/12 05:18:39;;;;;;;22.63;6.80;;;12.30;98.40;;;;;;5058416;28;20478;-67
2022/09/12 05:21:08;;;;;;;8.83;5.17;;;;;;;;;;5059225;28;20540;-70
2022/09/12 05:23:35;;;;;;;11.10;5.50;;;12.30;98.50;;;;;;5056009;28;20474;-66
2022/09/12 05:26:03;;;;;;;10.67;5.27;;;12.30;98.20;;;;;;5057218;28;20479;-62
2022/09/12 05:28:31;;;;;;;15.13;5.10;;;12.30;98.30;;;;;;5065582;28;20847;-65
2022/09/12 05:31:02;;;;;;;16.33;4.90;;;12.30;98.30;;;;;;5059955;28;20479;-66
2022/09/12 05:33:29;;;;;;;16.43;5.13;;;12.40;98.30;;;;;;5056063;28;20515;-63
2022/09/12 05:35:57;;;;;;;23.53;5.50;;;12.30;98.40;;;;;;5040527;28;20541;-63
2022/09/12 05:38:25;;;;;;;20.03;6.00;;;;;;;;;;5040545;28;20472;-65
2022/09/12 05:40:52;;;;;;;13.73;4.80;;;12.10;98.80;;;;;;5039513;28;20472;-65
2022/09/12 05:43:19;;;;;;;10.23;4.90;;;12.00;99.10;;;;;;5054110;28;20483;-64
2022/09/12 05:45:45;;;;;;;17.57;4.97;;;12.10;99.40;;;;;;5058984;28;20586;-65
2022/09/12 05:48:12;;;;;;;12.13;5.70;;;12.10;99.50;;;;;;5060363;28;20464;-66
2022/09/12 05:50:41;;;;;;;17.60;4.67;;;12.20;99.60;;;;;;5058230;28;20471;-63
2022/09/12 05:53:09;;;;;;;20.00;5.00;;;;;;;;;;5042920;28;20514;-63
2022/09/12 05:55:36;;;;;;;20.00;6.10;;;12.40;99.90;;;;;;5039921;28;20476;-64
2022/09/12 05:58:03;;;;;;;17.53;5.57;;;12.50;99.90;;;;;;5047066;28;20940;-63
2022/09/12 06:00:30;;;;;;;22.37;5.40;;;;;;;;;;5038447;28;20467;-65
2022/09/12 06:02:57;;;;;;;14.57;5.20;;;;;;;;;;5042275;28;20461;-64
2022/09/12 06:05:24;;;;;;;8.90;4.50;;;12.90;99.90;;;;;;5042070;28;20526;-65
2022/09/12 06:07:52;;;;;;;20.27;5.80;;;;;;;;;;5044520;28;20479;-66
2022/09/12 06:10:21;;;;;;;11.20;5.03;;;13.20;99.90;;;;;;5045292;28;20472;-62
2022/09/12 06:12:48;;;;;;;11.30;4.47;;;13.40;99.90;;;;;;5060045;28;20534;-63
2022/09/12 06:15:17;;;;;;;16.87;5.30;;;13.60;99.90;;;;;;5063931;28;20582;-63
2022/09/12 06:17:43;;;;;;;18.70;5.60;;;13.90;99.90;;;;;;5049078;28;20949;-66
2022/09/12 06:20:10;;;;;;;22.70;6.23;;;;;;;;;;5060018;28;21018;-65
2022/09/12 06:22:38;;;;;;;26.27;6.77;;;;;;;;;;5061564;28;20960;-64
2022/09/12 06:25:05;;;;;;;23.97;6.80;;;15.00;99.90;;;;;;5062613;28;21294;-62
2022/09/12 06:27:33;;;;;;;14.40;6.30;;;15.40;99.90;;;;;;5062588;28;20473;-65
2022/09/12 06:30:00;;;;;;;29.27;7.00;;;;;;;;;;5082164;28;20941;-62
2022/09/12 06:32:30;;;;;;;25.87;7.90;;;;;;;;;;5077754;28;20466;-66
2022/09/12 06:34:57;;;;;;;17.97;6.73;;;;;;;;;;5063653;28;21089;-64
2022/09/12 06:37:24;;;;;;;14.37;5.60;;;;;;;;;;5063463;28;20474;-65
2022/09/12 06:39:52;;;;;;;18.70;6.53;;;;;;;;;;5062777;28;20894;-64
2022/09/12 06:42:19;;;;;;;15.23;6.70;;;19.00;95.60;;;;;;5062095;28;20477;-65
2022/09/12 06:44:47;;;;;;;9.67;5.70;;;;;;;;;;5062464;28;20535;-63
2022/09/12 06:47:14;;;;;;;15.53;5.90;;;;;;;;;;5063131;28;20494;-65
2022/09/12 06:49:41;;;;;;;17.57;5.77;;;;;;;;;;5062055;28;20498;-64
2022/09/12 06:52:08;;;;;;;11.83;5.17;;;20.60;93.00;;;;;;5063033;28;20459;-66
2022/09/12 06:54:35;;;;;;;9.03;5.30;;;21.20;92.80;;;;;;5063050;28;20494;-64
2022/09/12 06:57:01;;;;;;;12.53;5.37;;;21.90;92.60;;;;;;5063127;28;20474;-68
2022/09/12 06:59:29;;;;;;;8.93;5.80;;;22.50;91.40;;;;;;5062356;28;20550;-68
2022/09/12 07:01:57;;;;;;;10.30;5.13;;;;;;;;;;5062168;28;20471;-68
2022/09/12 07:04:52;;;;;;;11.80;5.93;;;23.60;90.00;;;;;;5063321;28;20454;-68
2022/09/12 07:07:19;;;;;;;17.13;6.87;;;24.00;89.20;;;;;;5062799;28;20867;-70
2022/09/12 07:09:46;;;;;;;18.80;6.67;;;24.30;88.10;;;;;;5061788;28;20449;-68
2022/09/12 07:12:12;;;;;;;19.73;7.23;;;24.60;87.80;;;;;;5063303;28;20467;-68
2022/09/12 07:14:39;;;;;;;27.83;8.43;;;24.90;87.50;;;;;;5062047;28;20495;-64
2022/09/12 07:17:07;;;;;;;32.33;7.73;;;24.90;85.70;;;;;;5057447;28;21467;-68
2022/09/12 07:19:34;;;;;;;15.47;8.30;;;;;;;;;;5057520;28;20470;-64
2022/09/12 07:22:01;;;;;;;22.03;7.30;;;;;;;;;;5061796;28;20509;-66
2022/09/12 07:24:28;;;;;;;29.63;8.17;;;24.80;85.40;;;;;;5061252;28;20467;-64
2022/09/12 07:26:55;;;;;;;21.50;7.80;;;24.60;85.20;;;;;;5062844;28;20465;-64
2022/09/12 07:29:22;;;;;;;9.20;7.27;;;24.10;85.80;;;;;;5077370;28;20465;-66
2022/09/12 07:31:48;;;;;;;25.23;7.40;;;24.30;86.60;;;;;;5082269;28;20445;-66
2022/09/12 07:34:16;;;;;;;13.20;7.50;;;24.10;87.50;;;;;;5083116;28;20868;-63
2022/09/12 07:36:43;;;;;;;27.40;7.17;;;24.10;87.40;;;;;;5068079;28;20483;-64
2022/09/12 07:39:10;;;;;;;17.13;7.50;;;;;;;;;;5041065;28;20474;-67
2022/09/12 07:41:37;;;;;;;16.97;8.10;;;;;;;;;;5041304;28;20794;-65
2022/09/12 07:44:05;;;;;;;18.07;6.60;;;;;;;;;;5056146;28;20486;-66
2022/09/12 07:46:33;;;;;;;16.03;7.27;;;23.70;89.80;;;;;;5082316;28;20864;-68
2022/09/12 07:49:01;;;;;;;19.20;7.37;;;;;;;;;;5082299;28;20546;-64
2022/09/12 07:51:31;;;;;;;19.33;8.07;;;23.70;90.20;;;;;;5081495;28;20468;-68
2022/09/12 07:53:58;;;;;;;30.57;8.63;;;23.80;90.50;;;;;;5070342;28;20865;-67
2022/09/12 07:56:26;;;;;;;12.73;7.63;;;23.80;90.70;;;;;;5057132;28;20574;-65
2022/09/12 07:58:52;;;;;;;14.40;8.07;;;23.80;90.70;;;;;;5061637;28;20438;-64
2022/09/12 08:01:21;;;;;;;29.33;9.80;;;;;;;;;;5061065;28;20462;-67
2022/09/12 08:03:50;;;;;;;21.03;9.17;;;24.00;91.00;;;;;;5061539;28;20812;-69
2022/09/12 08:06:19;;;;;;;13.53;7.17;;;24.00;91.10;;;;;;5047574;28;20847;-67
2022/09/12 08:08:48;;;;;;;20.00;7.70;;;24.10;91.10;;;;;;5040858;28;20719;-66
2022/09/12 08:11:17;;;;;;;16.17;8.17;;;24.10;91.10;;;;;;5041744;28;20907;-67
2022/09/12 08:13:44;;;;;;;20.70;8.97;;;;;;;;;;5047186;28;20487;-69
2022/09/12 08:16:13;;;;;;;18.03;7.93;;;24.30;91.10;;;;;;5041242;28;20702;-67
2022/09/12 08:18:40;;;;;;;23.97;8.47;;;;;;;;;;5040835;28;20497;-68
2022/09/12 08:21:11;;;;;;;19.90;7.83;;;24.40;90.80;;;;;;5040811;28;20447;-69
2022/09/12 08:23:38;;;;;;;16.67;7.67;;;24.40;91.40;;;;;;5040507;28;20499;-67
2022/09/12 08:26:07;;;;;;;17.20;8.50;;;24.50;91.40;;;;;;5040961;28;20449;-68
2022/09/12 08:28:35;;;;;;;28.97;7.97;;;24.60;91.70;;;;;;5051439;28;20450;-63
2022/09/12 08:31:03;;;;;;;12.13;6.27;;;24.80;92.20;;;;;;5057105;28;20478;-66
2022/09/12 08:33:32;;;;;;;12.40;6.83;;;;;;;;;;5060448;28;20499;-65
2022/09/12 08:36:04;;;;;;;14.50;7.17;;;25.20;91.10;;;;;;5058959;28;20871;-67
2022/09/12 08:38:31;;;;;;;13.33;5.90;;;25.30;90.30;;;;;;5059718;28;20734;-69
2022/09/12 08:41:04;;;;;;;15.33;6.33;;;25.50;90.40;;;;;;5058623;28;20460;-64
2022/09/12 08:43:49;;;;;;;26.00;6.90;;;25.60;90.10;;;;;;5056504;28;20907;-66
2022/09/12 08:46:21;;;;;;;23.70;6.90;;;25.70;90.30;;;;;;5054470;28;20586;-69
2022/09/12 08:48:48;;;;;;;16.03;5.40;;;25.80;90.10;;;;;;5056751;28;20446;-66
2022/09/12 08:51:17;;;;;;;11.30;6.37;;;;;;;;;;5055587;28;20967;-65
2022/09/12 08:53:46;;;;;;;21.53;6.17;;;25.90;89.00;;;;;;5055889;28;20460;-68
2022/09/12 08:56:13;;;;;;;13.20;5.60;;;26.00;88.70;;;;;;5047761;28;21247;-67
2022/09/12 08:58:44;;;;;;;13.23;5.47;;;26.00;90.10;;;;;;5057544;28;20500;-68
2022/09/12 09:01:14;;;;;;;24.80;6.07;;;;;;;;;;5051159;28;20456;-65
2022/09/12 09:03:59;;;;;;;27.60;8.10;;;25.40;86.40;;;;;;5053097;28;20443;-67
2022/09/12 09:06:36;;;;;;;16.70;5.20;;;24.70;85.00;;;;;;5052649;28;20831;-68
2022/09/12 09:09:11;;;;;;;11.40;5.40;;;24.50;88.80;;;;;;5054996;28;20688;-63
2022/09/12 09:18:13;;;;;;;19.57;7.10;;;23.80;87.40;;;;;;4987447;28;20569;-68
2022/09/12 09:20:42;;;;;;;18.67;6.40;;;;;;;;;;5039725;28;20456;-65
2022/09/12 09:23:14;;;;;;;15.93;4.93;;;23.80;88.00;;;;;;5048515;28;20844;-67
2022/09/12 09:25:45;;;;;;;9.83;4.10;;;;;;;;;;5051666;28;20489;-67
2022/09/12 09:28:14;;;;;;;8.90;3.90;;;;;;;;;;5050177;28;20478;-63
2022/09/12 09:30:43;;;;;;;10.20;4.13;;;24.70;90.40;;;;;;5049130;28;20737;-66
2022/09/12 09:33:19;;;;;;;20.83;5.00;;;25.20;89.00;;;;;;5050310;28;20504;-70
2022/09/12 09:35:47;;;;;;;18.00;4.80;;;;;;;;;;4998240;28;20453;-67
2022/09/12 09:38:24;;;;;;;3.87;3.03;;;24.60;83.50;;;;;;5028193;28;20479;-67
2022/09/12 09:41:03;;;;;;;23.77;4.97;;;24.70;88.40;;;;;;5013676;28;20475;-71
2022/09/12 09:43:30;;;;;;;11.90;4.50;;;;;;;;;;5032591;28;20458;-68
2022/09/12 09:45:58;;;;;;;8.43;3.80;;;24.80;84.30;;;;;;5029438;28;20483;-66
2022/09/12 09:48:30;;;;;;;21.47;5.37;;;25.10;86.30;;;;;;5026756;28;20530;-64
2022/09/12 09:51:00;;;;;;;13.57;3.63;;;25.20;83.80;;;;;;5029428;28;20468;-68
2022/09/12 09:53:36;;;;;;;7.00;3.80;;;24.70;82.40;;;;;;5030672;28;20563;-68
2022/09/12 09:56:08;;;;;;;6.73;3.87;;;24.60;85.10;;;;;;5030313;28;20479;-67
2022/09/12 09:58:36;;;;;;;14.83;4.70;;;24.30;83.00;;;;;;5030065;28;20777;-67
2022/09/12 10:01:04;;;;;;;22.70;4.30;;;;;;;;;;5028811;28;20452;-67
2022/09/12 10:03:34;;;;;;;9.93;4.40;;;;;;;;;;5030929;28;20730;-67
2022/09/12 10:06:05;;;;;;;16.90;4.80;;;24.30;84.90;;;;;;5031457;28;20915;-66
2022/09/12 10:08:35;;;;;;;7.10;5.20;;;24.40;85.50;;;;;;5030310;28;20934;-64
2022/09/12 10:11:04;;;;;;;17.30;5.23;;;24.50;83.20;;;;;;5028863;28;20668;-66
2022/09/12 10:13:34;;;;;;;22.43;5.53;;;;;;;;;;5032426;28;20683;-65
2022/09/12 10:16:02;;;;;;;20.53;5.80;;;;;;;;;;5027528;28;20475;-64
2022/09/12 10:18:39;;;;;;;20.10;5.37;;;;;;;;;;5028785;28;20476;-64
2022/09/12 10:21:20;;;;;;;10.13;3.53;;;24.30;81.70;;;;;;5028354;28;20458;-66
2022/09/12 10:23:51;;;;;;;12.13;5.47;;;24.40;82.00;;;;;;5027768;28;20448;-64
2022/09/12 10:26:20;;;;;;;25.63;5.60;;;24.60;83.70;;;;;;5024875;28;21136;-67
2022/09/12 10:28:51;;;;;;;9.27;3.73;;;24.60;83.70;;;;;;5038890;28;20900;-64
2022/09/12 10:31:27;;;;;;;29.90;4.67;;;24.70;80.60;;;;;;5028278;28;20949;-68
2022/09/12 10:33:58;;;;;;;3.50;3.20;;;;;;;;;;5016827;28;21405;-66
2022/09/12 10:36:25;;;;;;;9.80;4.13;;;24.80;81.80;;;;;;5024987;28;20451;-68
2022/09/12 10:38:55;;;;;;;3.03;2.83;;;24.80;79.80;;;;;;5026808;28;20595;-68
2022/09/12 10:41:22;;;;;;;8.93;3.20;;;;;;;;;;5028544;28;20784;-67
2022/09/12 10:43:49;;;;;;;9.40;3.53;;;25.00;81.70;;;;;;5047767;28;20454;-64
2022/09/12 10:46:24;;;;;;;10.50;3.50;;;;;;;;;;5047557;28;20479;-64
2022/09/12 10:49:11;;;;;;;9.50;2.83;;;25.10;78.30;;;;;;5047345;28;20580;-66
2022/09/12 10:51:39;;;;;;;2.80;2.60;;;25.10;77.00;;;;;;5046533;28;20484;-67
2022/09/12 10:54:11;;;;;;;18.87;3.27;;;25.30;77.40;;;;;;5049145;28;20454;-67
2022/09/12 10:56:46;;;;;;;9.63;2.60;;;25.20;76.80;;;;;;5052121;28;20454;-65
2022/09/12 10:59:25;;;;;;;7.07;2.43;;;25.00;76.70;;;;;;5048163;28;20483;-67
2022/09/12 11:01:59;;;;;;;7.93;2.30;;;25.10;77.40;;;;;;5022972;28;20847;-63
2022/09/12 11:04:41;;;;;;;2.33;2.13;;;25.10;75.30;;;;;;5051365;28;20991;-65
2022/09/12 11:07:30;;;;;;;10.57;2.37;;;25.10;79.10;;;;;;5051878;28;20556;-65
2022/09/12 11:10:03;;;;;;;6.20;2.17;;;25.00;74.80;;;;;;5047161;28;20458;-64
2022/09/12 11:12:37;;;;;;;11.63;2.00;;;25.10;74.70;;;;;;5050783;28;21113;-65
2022/09/12 11:15:15;;;;;;;7.80;1.80;;;;;;;;;;5046126;28;20486;-67
2022/09/12 11:17:50;;;;;;;10.70;2.47;;;25.20;76.10;;;;;;5050417;28;20454;-66
2022/09/12 11:20:39;;;;;;;8.60;2.17;;;25.30;73.40;;;;;;5048515;28;20481;-66
2022/09/12 11:23:26;;;;;;;10.93;2.43;;;25.30;73.90;;;;;;5008039;28;20477;-63
2022/09/12 11:26:00;;;;;;;17.53;2.57;;;25.40;73.40;;;;;;5002628;28;20467;-66
2022/09/12 11:28:38;;;;;;;4.70;1.97;;;25.40;76.00;;;;;;5028502;28;20467;-64
2022/09/12 11:31:19;;;;;;;9.40;2.40;;;25.40;74.30;;;;;;5026448;28;20463;-66
2022/09/12 11:33:50;;;;;;;13.47;3.17;;;;;;;;;;5034468;28;21217;-63
2022/09/12 11:36:25;;;;;;;6.93;2.43;;;;;;;;;;5030674;28;20584;-65
2022/09/12 11:39:01;;;;;;;8.37;1.93;;;25.90;71.30;;;;;;5009722;28;20449;-64
2022/09/12 11:41:32;;;;;;;5.90;1.90;;;26.10;71.80;;;;;;5028540;28;20559;-63
2022/09/12 11:44:04;;;;;;;4.30;1.53;;;26.00;69.30;;;;;;5029448;28;20892;-64
2022/09/12 11:46:36;;;;;;;15.00;2.30;;;26.20;71.00;;;;;;5029647;28;21037;-65
2022/09/12 11:49:13;;;;;;;22.83;2.17;;;26.60;72.30;;;;;;5022816;28;20844;-66
2022/09/12 11:51:44;;;;;;;7.70;2.13;;;26.60;71.50;;;;;;5030133;28;20470;-66
2022/09/12 11:54:21;;;;;;;3.60;1.90;;;26.50;68.00;;;;;;5031256;28;20470;-64
2022/09/12 11:56:53;;;;;;;12.67;2.80;;;26.60;69.50;;;;;;5033496;28;20476;-66
2022/09/12 11:59:31;;;;;;;5.93;1.83;;;26.80;69.40;;;;;;5034191;28;20469;-66
2022/09/12 12:01:59;;;;;;;9.37;2.23;;;27.20;72.70;;;;;;5020329;28;20471;-65
2022/09/12 12:04:41;;;;;;;6.03;1.93;;;26.90;68.80;;;;;;5028161;28;20485;-66
2022/09/12 12:07:11;;;;;;;6.70;2.37;;;27.30;73.70;;;;;;5023574;28;20857;-69
2022/09/12 12:09:46;;;;;;;4.77;1.80;;;27.60;73.20;;;;;;5021856;28;20626;-68
2022/09/12 12:12:18;;;;;;;9.83;2.43;;;27.90;66.80;;;;;;5037910;28;20563;-68
2022/09/12 12:14:48;;;;;;;2.30;1.97;;;28.10;70.50;;;;;;5031955;28;20483;-70
2022/09/12 12:17:17;;;;;;;2.70;2.50;;;28.30;69.50;;;;;;5031154;28;20484;-68
2022/09/12 12:19:45;;;;;;;8.13;2.20;;;28.50;70.00;;;;;;5029880;28;20951;-67
2022/09/12 12:22:17;;;;;;;3.17;1.80;;;28.10;64.60;;;;;;5031543;28;20480;-67
2022/09/12 12:25:07;;;;;;;30.70;3.10;;;27.90;66.90;;;;;;5031411;28;20483;-67
2022/09/12 12:27:52;;;;;;;7.03;2.17;;;27.50;64.70;;;;;;5050406;28;20502;-67
2022/09/12 12:30:38;;;;;;;5.20;1.97;;;;;;;;;;5051469;28;20457;-67
2022/09/12 12:33:27;;;;;;;15.13;2.73;;;;;;;;;;5049445;28;20474;-67
2022/09/12 12:36:06;;;;;;;6.90;2.43;;;26.80;67.70;;;;;;5050563;28;20441;-66
2022/09/12 12:38:34;;;;;;;10.03;2.07;;;26.80;67.90;;;;;;5049642;28;20547;-67
2022/09/12 12:41:34;;;;;;;4.17;2.07;;;26.80;65.90;;;;;;5047514;28;20472;-66
2022/09/12 12:44:43;;;;;;;12.07;1.87;;;26.90;66.90;;;;;;5046641;28;20848;-66
2022/09/12 12:47:18;;;;;;;9.10;2.13;;;27.10;68.90;;;;;;5041024;28;20475;-67
2022/09/12 12:49:51;;;;;;;5.10;1.77;;;27.10;63.50;;;;;;5047254;28;20492;-66
2022/09/12 12:52:19;;;;;;;6.10;1.70;;;26.90;64.10;;;;;;5050569;28;20501;-68
2022/09/12 12:54:57;;;;;;;6.20;1.67;;;26.80;62.30;;;;;;5048151;28;20998;-66
2022/09/12 12:57:52;;;;;;;13.17;2.30;;;26.80;65.00;;;;;;5049082;28;20471;-65
2022/09/12 13:00:30;;;;;;;5.60;1.93;;;27.10;67.80;;;;;;5049847;28;20969;-66
2022/09/12 13:03:00;;;;;;;5.47;2.00;;;27.00;64.10;;;;;;5017809;28;20499;-66
2022/09/12 13:05:29;;;;;;;10.10;2.27;;;27.10;67.20;;;;;;5026920;28;20456;-66
2022/09/12 13:08:01;;;;;;;10.33;2.80;;;27.40;68.80;;;;;;5007989;28;20479;-67
2022/09/12 13:10:30;;;;;;;2.50;1.70;;;27.30;64.40;;;;;;5034790;28;20477;-67
2022/09/12 13:13:00;;;;;;;11.90;2.07;;;27.20;64.00;;;;;;5002084;28;20487;-66
2022/09/12 13:15:45;;;;;;;5.13;1.83;;;;;;;;;;5046673;28;20494;-66
2022/09/12 13:18:16;;;;;;;7.53;1.87;;;27.60;65.60;;;;;;5019104;28;20476;-67
2022/09/12 13:20:48;;;;;;;5.50;2.33;;;;;;;;;;5019061;28;21329;-67
2022/09/12 13:23:22;;;;;;;5.50;2.37;;;27.90;64.90;;;;;;5030898;28;20743;-67
2022/09/12 13:25:53;;;;;;;4.30;1.97;;;28.10;63.50;;;;;;5025759;28;20462;-67
2022/09/12 13:28:19;;;;;;;1.90;1.47;;;28.10;60.80;;;;;;5028904;28;20941;-66
2022/09/12 13:30:48;;;;;;;2.87;1.40;;;;;;;;;;5027934;28;20915;-66
2022/09/12 13:33:34;;;;;;;4.10;1.50;;;27.50;59.50;;;;;;5022430;28;20692;-66
2022/09/12 13:36:35;;;;;;;8.50;2.13;;;27.50;62.10;;;;;;5026889;28;20546;-66